Time;durP1;ratioP1;P1;durP2;ratioP2;P2;SDS_P1;SDS_P2;PMS_P1;PMS_P2;Temp;Humidity;BMP_temperature;BMP_pressure;BME280_temperature;BME280_humidity;BME280_pressure;Samples;Min_cycle;Max_cycle;Signal;HPM_P1;HPM_P2
2023/08/30 00:01:19;;;;;;;;;;;;;;;15.32;48.70;99860.81;4855156;28;99517;-71
2023/08/30 00:03:46;;;;;;;;;;;;;;;15.31;48.76;99868.16;4840376;28;99197;-70
2023/08/30 00:06:12;;;;;;;;;;;;;;;15.32;49.06;99860.81;4858318;28;98876;-71
2023/08/30 00:08:39;;;;;;;;;;;;;;;15.32;48.98;99864.31;4852096;28;98684;-71
2023/08/30 00:11:06;;;;;;;;;;;;;;;15.33;48.99;99868.66;4849663;28;98054;-71
2023/08/30 00:13:32;;;;;;;;;;;;;;;15.33;48.83;99873.31;4837392;28;98035;-71
2023/08/30 00:15:59;;;;;;;;;;;;;;;15.33;48.70;99867.88;4852268;28;97995;-70
2023/08/30 00:18:25;;;;;;;;;;;;;;;15.34;48.79;99869.47;4846946;28;98107;-71
2023/08/30 00:20:53;;;;;;;;;;;;;;;15.34;48.93;99867.53;4874406;28;98194;-70
2023/08/30 00:23:20;;;;;;;;;;;;;;;15.34;49.15;99855.88;4860657;28;98066;-71
2023/08/30 00:25:46;;;;;;;;;;;;;;;15.34;48.86;99864.03;4879742;28;100530;-71
2023/08/30 00:28:12;;;;;;;;;;;;;;;15.34;48.78;99866.75;4871948;28;98663;-71
2023/08/30 00:30:39;;;;;;;;;;;;;;;15.35;48.97;99865.63;4867920;28;97942;-71
2023/08/30 00:33:06;;;;;;;;;;;;;;;15.35;48.96;99868.34;4848422;28;98361;-71
2023/08/30 00:35:33;;;;;;;;;;;;;;;15.35;48.88;99876.47;4847989;28;99892;-71
2023/08/30 00:37:59;;;;;;;;;;;;;;;15.35;48.83;99879.19;4864429;28;98246;-70
2023/08/30 00:40:26;;;;;;;;;;;;;;;15.35;49.05;99874.56;4862499;28;98921;-70
2023/08/30 00:42:53;;;;;;;;;;;;;;;15.36;48.84;99883.50;4886595;28;99525;-70
2023/08/30 00:45:20;;;;;;;;;;;;;;;15.35;48.61;99885.44;4864249;28;98265;-70
2023/08/30 00:47:46;;;;;;;;;;;;;;;15.35;48.93;99880.00;4876248;28;98904;-71
2023/08/30 00:50:14;;;;;;;;;;;;;;;15.35;48.62;99880.00;4899784;28;98325;-71
2023/08/30 00:52:40;;;;;;;;;;;;;;;15.35;48.86;99880.00;4877611;28;98009;-71
2023/08/30 00:55:07;;;;;;;;;;;;;;;15.35;49.06;99882.72;4881007;28;98642;-71
2023/08/30 00:57:33;;;;;;;;;;;;;;;15.36;48.81;99886.22;4886792;28;98829;-71
2023/08/30 01:00:00;;;;;;;;;;;;;;;15.35;49.03;99890.06;4854091;28;100048;-71
2023/08/30 01:02:27;;;;;;;;;;;;;;;15.35;49.15;99881.91;4889913;28;103410;-71
2023/08/30 01:04:54;;;;;;;;;;;;;;;15.35;48.91;99890.84;4868631;28;98778;-71
2023/08/30 01:07:20;;;;;;;;;;;;;;;15.35;48.97;99884.63;4867558;28;98532;-71
2023/08/30 01:09:47;;;;;;;;;;;;;;;15.34;49.04;99881.13;4882713;28;98496;-70
2023/08/30 01:12:39;;;;;;;;;;;;;;;15.34;49.05;99883.84;4869646;28;99389;-71
2023/08/30 01:15:21;;;;;;;;;;;;;;;15.34;48.99;99881.13;4856589;28;98853;-70
2023/08/30 01:17:51;;;;;;;;;;;;;;;15.33;48.90;99879.53;4886584;28;98104;-71
2023/08/30 01:20:22;;;;;;;;;;;;;;;15.34;48.96;99885.75;4888773;28;99301;-71
2023/08/30 01:23:09;;;;;;;;;;;;;;;15.33;49.08;99873.31;4851637;28;99397;-71
2023/08/30 01:26:09;;;;;;;;;;;;;;;15.31;48.70;99857.31;4900665;28;98231;-71
2023/08/30 01:28:35;;;;;;;;;;;;;;;15.31;48.77;99860.00;4868255;28;100505;-71
2023/08/30 01:31:01;;;;;;;;;;;;;;;15.31;48.85;99861.94;4851904;28;99095;-71
2023/08/30 01:33:29;;;;;;;;;;;;;;;15.31;49.01;99853.78;4865780;28;98393;-71
2023/08/30 01:35:56;;;;;;;;;;;;;;;15.29;49.00;99848.69;4863702;28;98188;-71
2023/08/30 01:38:23;;;;;;;;;;;;;;;15.29;48.89;99847.84;4864942;28;98219;-71
2023/08/30 01:40:49;;;;;;;;;;;;;;;15.27;48.79;99842.75;4868441;28;99246;-71
2023/08/30 01:43:16;;;;;;;;;;;;;;;15.26;49.02;99840.38;4857522;28;98016;-71
2023/08/30 01:45:44;;;;;;;;;;;;;;;15.25;49.21;99834.13;4886766;28;98037;-71
2023/08/30 01:48:12;;;;;;;;;;;;;;;15.23;49.19;99847.22;4869374;28;98523;-71
2023/08/30 01:50:40;;;;;;;;;;;;;;;15.23;49.07;99845.28;4867704;28;98585;-71
2023/08/30 01:53:07;;;;;;;;;;;;;;;15.20;48.72;99854.06;4845689;28;99722;-71
2023/08/30 01:55:34;;;;;;;;;;;;;;;15.20;49.04;99856.78;4864447;28;98079;-71
2023/08/30 01:58:00;;;;;;;;;;;;;;;15.19;48.99;99855.19;4868750;28;98132;-71
2023/08/30 02:00:26;;;;;;;;;;;;;;;15.19;48.93;99852.47;4881183;28;98556;-71
2023/08/30 02:02:54;;;;;;;;;;;;;;;15.20;49.17;99850.53;4883151;28;99312;-71
2023/08/30 02:05:20;;;;;;;;;;;;;;;15.19;49.02;99848.94;4851535;28;98223;-71
2023/08/30 02:08:10;;;;;;;;;;;;;;;15.19;49.02;99846.22;4864994;28;98657;-71
2023/08/30 02:10:37;;;;;;;;;;;;;;;15.18;48.94;99853.59;4882532;28;98975;-71
2023/08/30 02:13:04;;;;;;;;;;;;;;;15.17;48.69;99859.34;4867185;28;99072;-71
2023/08/30 02:15:31;;;;;;;;;;;;;;;15.19;49.13;99857.09;4878474;28;98093;-71
2023/08/30 02:17:58;;;;;;;;;;;;;;;15.18;48.88;99845.44;4876476;28;98300;-71
2023/08/30 02:20:25;;;;;;;;;;;;;;;15.19;49.15;99848.94;4876367;28;98173;-71
2023/08/30 02:22:51;;;;;;;;;;;;;;;15.18;49.18;99840.00;4853097;28;98008;-71
2023/08/30 02:25:17;;;;;;;;;;;;;;;15.20;49.11;99853.25;4857861;28;98886;-71
2023/08/30 02:27:43;;;;;;;;;;;;;;;15.19;48.93;99849.75;4861648;28;98042;-71
2023/08/30 02:30:10;;;;;;;;;;;;;;;15.19;49.02;99855.19;4846197;28;98377;-71
2023/08/30 02:32:37;;;;;;;;;;;;;;;15.16;49.09;99861.22;4859106;28;97962;-70
2023/08/30 02:35:03;;;;;;;;;;;;;;;15.18;49.20;99855.50;4847218;28;98215;-71
2023/08/30 02:37:30;;;;;;;;;;;;;;;15.17;48.90;99854.69;4864014;28;98607;-71
2023/08/30 02:39:56;;;;;;;;;;;;;;;15.18;49.10;99855.50;4863848;28;98162;-71
2023/08/30 02:42:22;;;;;;;;;;;;;;;15.18;49.02;99856.28;4849121;28;97937;-70
2023/08/30 02:44:48;;;;;;;;;;;;;;;15.18;48.95;99853.59;4881149;28;98132;-71
2023/08/30 02:47:15;;;;;;;;;;;;;;;15.19;49.14;99860.59;4848922;28;98348;-71
2023/08/30 02:49:42;;;;;;;;;;;;;;;15.19;48.95;99859.81;4857850;28;98295;-71
2023/08/30 02:52:08;;;;;;;;;;;;;;;15.18;48.97;99860.94;4853413;28;98760;-71
2023/08/30 02:54:35;;;;;;;;;;;;;;;15.19;49.18;99859.81;4885955;28;98081;-71
2023/08/30 02:57:01;;;;;;;;;;;;;;;15.18;48.98;99861.72;4853942;28;98140;-71
2023/08/30 02:59:28;;;;;;;;;;;;;;;15.18;48.90;99852.78;4861911;28;98464;-71
2023/08/30 03:01:54;;;;;;;;;;;;;;;15.18;49.12;99858.22;4861721;28;98273;-71
2023/08/30 03:04:21;;;;;;;;;;;;;;;15.18;49.00;99852.78;4830049;28;98614;-70
2023/08/30 03:06:47;;;;;;;;;;;;;;;15.17;49.04;99854.69;4864265;28;98727;-71
2023/08/30 03:09:14;;;;;;;;;;;;;;;15.16;49.05;99858.50;4867724;28;99870;-71
2023/08/30 03:11:40;;;;;;;;;;;;;;;15.16;49.13;99866.66;4835469;28;98239;-71
2023/08/30 03:14:07;;;;;;;;;;;;;;;15.16;48.98;99869.38;4850975;28;98114;-71
2023/08/30 03:16:33;;;;;;;;;;;;;;;15.15;48.93;99866.97;4850519;28;100257;-71
2023/08/30 03:19:00;;;;;;;;;;;;;;;15.16;48.92;99869.38;4864046;28;98478;-71
2023/08/30 03:21:26;;;;;;;;;;;;;;;15.16;49.17;99874.78;4858981;28;99820;-71
2023/08/30 03:23:52;;;;;;;;;;;;;;;15.16;49.21;99880.22;4879917;28;99345;-71
2023/08/30 03:26:18;;;;;;;;;;;;;;;15.16;48.97;99874.78;4864486;28;98753;-71
2023/08/30 03:28:45;;;;;;;;;;;;;;;15.16;48.99;99874.00;4885049;28;98300;-71
2023/08/30 03:31:16;;;;;;;;;;;;;;;15.17;49.01;99870.19;4865117;28;97970;-70
2023/08/30 03:33:42;;;;;;;;;;;;;;;15.16;48.96;99853.06;4853173;28;98397;-71
2023/08/30 03:36:10;;;;;;;;;;;;;;;15.16;48.95;99863.13;4868744;28;99755;-71
2023/08/30 03:38:36;;;;;;;;;;;;;;;15.16;49.18;99868.56;4871910;28;98217;-71
2023/08/30 03:41:03;;;;;;;;;;;;;;;15.17;48.95;99881.06;4907122;28;98111;-71
2023/08/30 03:43:30;;;;;;;;;;;;;;;15.16;49.27;99880.22;4886181;28;98578;-71
2023/08/30 03:45:57;;;;;;;;;;;;;;;15.17;49.28;99872.91;4853558;28;98465;-71
2023/08/30 03:48:24;;;;;;;;;;;;;;;15.17;49.12;99876.41;4860325;28;98184;-71
2023/08/30 03:50:51;;;;;;;;;;;;;;;15.18;48.88;99882.66;4885542;28;99643;-71
2023/08/30 03:53:20;;;;;;;;;;;;;;;15.17;48.80;99878.34;4884161;28;99942;-71
2023/08/30 03:55:46;;;;;;;;;;;;;;;15.18;49.02;99882.66;4884139;28;99142;-70
2023/08/30 03:58:12;;;;;;;;;;;;;;;15.17;49.09;99879.13;4881536;28;98348;-71
2023/08/30 04:00:39;;;;;;;;;;;;;;;15.18;49.01;99882.66;4884267;28;102102;-71
2023/08/30 04:03:09;;;;;;;;;;;;;;;15.18;49.12;99888.06;4867351;28;98331;-70
2023/08/30 04:05:36;;;;;;;;;;;;;;;15.18;49.17;99880.72;4888335;28;98408;-70
2023/08/30 04:08:04;;;;;;;;;;;;;;;15.17;49.02;99873.69;4865417;28;98188;-71
2023/08/30 04:10:40;;;;;;;;;;;;;;;15.18;49.25;99886.16;4863770;28;98421;-71
2023/08/30 04:13:07;;;;;;;;;;;;;;;15.18;48.66;99879.94;4883859;28;98482;-71
2023/08/30 04:15:37;;;;;;;;;;;;;;;15.18;49.19;99877.22;4869193;28;99097;-72
2023/08/30 04:18:04;;;;;;;;;;;;;;;15.17;49.00;99873.69;4882748;28;100226;-71
2023/08/30 04:20:32;;;;;;;;;;;;;;;15.16;49.05;99865.84;4886363;28;98196;-71
2023/08/30 04:23:01;;;;;;;;;;;;;;;15.17;49.29;99862.03;4887068;28;98140;-72
2023/08/30 04:25:30;;;;;;;;;;;;;;;15.17;49.26;99864.75;4851637;28;98090;-72
2023/08/30 04:27:57;;;;;;;;;;;;;;;15.17;48.91;99862.03;4848284;28;98246;-71
2023/08/30 04:30:23;;;;;;;;;;;;;;;15.16;49.11;99861.22;4864114;28;98536;-71
2023/08/30 04:32:50;;;;;;;;;;;;;;;15.16;49.02;99861.22;4866552;28;98130;-71
2023/08/30 04:35:17;;;;;;;;;;;;;;;15.16;49.21;99858.50;4868032;28;99071;-71
2023/08/30 04:37:44;;;;;;;;;;;;;;;15.15;49.04;99870.47;4867233;28;98209;-72
2023/08/30 04:40:11;;;;;;;;;;;;;;;15.16;49.36;99871.28;4877870;28;98727;-71
2023/08/30 04:42:37;;;;;;;;;;;;;;;15.15;48.97;99880.53;4856818;28;99482;-71
2023/08/30 04:45:04;;;;;;;;;;;;;;;15.14;48.92;99873.53;4881895;28;98525;-71
2023/08/30 04:47:31;;;;;;;;;;;;;;;15.14;48.98;99879.75;4883062;28;98798;-71
2023/08/30 04:49:57;;;;;;;;;;;;;;;15.14;48.95;99879.75;4881922;28;98269;-71
2023/08/30 04:52:23;;;;;;;;;;;;;;;15.14;48.93;99879.75;4875703;28;98325;-72
2023/08/30 04:54:50;;;;;;;;;;;;;;;15.14;48.86;99881.66;4867252;28;98485;-71
2023/08/30 04:57:17;;;;;;;;;;;;;;;15.14;49.26;99885.19;4853875;28;98242;-71
2023/08/30 04:59:43;;;;;;;;;;;;;;;15.14;49.08;99887.91;4864128;28;98443;-72
2023/08/30 05:02:10;;;;;;;;;;;;;;;15.14;49.03;99887.91;4888580;28;98333;-71
2023/08/30 05:04:36;;;;;;;;;;;;;;;15.15;49.08;99891.41;4882425;28;98519;-72
2023/08/30 05:07:03;;;;;;;;;;;;;;;15.15;48.98;99885.97;4857847;28;98639;-72
2023/08/30 05:09:32;;;;;;;;;;;;;;;15.16;49.22;99891.09;4885393;28;98042;-71
2023/08/30 05:11:58;;;;;;;;;;;;;;;15.16;49.26;99891.09;4868312;28;98336;-69
2023/08/30 05:14:25;;;;;;;;;;;;;;;15.17;49.38;99886.47;4888014;28;100107;-72
2023/08/30 05:16:52;;;;;;;;;;;;;;;15.17;49.11;99884.56;4889913;28;98616;-69
2023/08/30 05:19:19;;;;;;;;;;;;;;;15.19;49.17;99892.38;4881597;28;98465;-69
2023/08/30 05:21:45;;;;;;;;;;;;;;;15.19;49.18;99889.66;4885546;28;98084;-69
2023/08/30 05:24:12;;;;;;;;;;;;;;;15.21;49.24;99888.25;4854270;28;98269;-71
2023/08/30 05:26:38;;;;;;;;;;;;;;;15.22;48.92;99886.34;4888472;28;98316;-72
2023/08/30 05:29:04;;;;;;;;;;;;;;;15.23;48.82;99891.44;4885340;28;98402;-72
2023/08/30 05:31:31;;;;;;;;;;;;;;;15.25;49.32;99891.16;4885507;28;97936;-71
2023/08/30 05:33:58;;;;;;;;;;;;;;;15.26;49.30;99887.31;4856932;28;98816;-71
2023/08/30 05:36:25;;;;;;;;;;;;;;;15.28;49.08;99890.50;4890542;28;98184;-71
2023/08/30 05:38:51;;;;;;;;;;;;;;;15.31;49.09;99889.09;4868885;28;97972;-70
2023/08/30 05:41:18;;;;;;;;;;;;;;;15.33;48.90;99884.16;4879374;28;98048;-71
2023/08/30 05:43:44;;;;;;;;;;;;;;;15.34;49.11;99883.84;4868152;28;98979;-70
2023/08/30 05:46:14;;;;;;;;;;;;;;;15.35;48.89;99888.16;4870508;28;97818;-71
2023/08/30 05:48:41;;;;;;;;;;;;;;;15.35;49.13;99882.72;4884247;28;99382;-72
2023/08/30 05:51:07;;;;;;;;;;;;;;;15.37;49.17;99888.66;4874286;28;98266;-72
2023/08/30 05:53:34;;;;;;;;;;;;;;;15.38;48.90;99887.53;4883440;28;98176;-71
2023/08/30 05:56:01;;;;;;;;;;;;;;;15.38;48.80;99894.88;4885471;28;98668;-71
2023/08/30 05:58:27;;;;;;;;;;;;;;;15.39;48.87;99894.56;4885254;28;98187;-72
2023/08/30 06:00:55;;;;;;;;;;;;;;;15.38;49.08;99892.16;4867406;28;98241;-72
2023/08/30 06:03:22;;;;;;;;;;;;;;;15.40;48.89;99889.91;4897998;28;103525;-71
2023/08/30 06:05:51;;;;;;;;;;;;;;;15.41;48.99;99883.41;4866651;28;98696;-72
2023/08/30 06:08:17;;;;;;;;;;;;;;;15.44;48.94;99878.13;4881338;28;97903;-72
2023/08/30 06:10:45;;;;;;;;;;;;;;;15.50;48.81;99880.72;4867293;28;97978;-71
2023/08/30 06:13:11;;;;;;;;;;;;;;;15.52;49.03;99878.47;4869909;28;98309;-71
2023/08/30 06:15:39;;;;;;;;;;;;;;;15.54;48.89;99877.03;4867388;28;98040;-72
2023/08/30 06:18:05;;;;;;;;;;;;;;;15.56;48.77;99872.09;4882754;28;99949;-70
2023/08/30 06:20:32;;;;;;;;;;;;;;;15.57;48.69;99873.69;4880537;28;98143;-70
2023/08/30 06:22:59;;;;;;;;;;;;;;;15.61;48.97;99873.88;4867778;28;98933;-70
2023/08/30 06:25:25;;;;;;;;;;;;;;;15.62;48.73;99865.41;4880617;28;97911;-71
2023/08/30 06:27:58;;;;;;;;;;;;;;;15.63;48.84;99875.16;4867041;28;98164;-71
2023/08/30 06:30:31;;;;;;;;;;;;;;;15.65;48.89;99874.88;4868127;28;98388;-70
2023/08/30 06:32:57;;;;;;;;;;;;;;;15.65;48.86;99874.88;4855911;28;98145;-70
2023/08/30 06:35:24;;;;;;;;;;;;;;;15.68;48.83;99877.78;4870385;28;97957;-70
2023/08/30 06:37:50;;;;;;;;;;;;;;;15.70;48.83;99877.44;4889165;28;98031;-70
2023/08/30 06:40:17;;;;;;;;;;;;;;;15.73;48.74;99876.03;4871007;28;98001;-71
2023/08/30 06:42:43;;;;;;;;;;;;;;;15.75;48.88;99871.06;4882497;28;98185;-71
2023/08/30 06:45:10;;;;;;;;;;;;;;;15.80;48.74;99877.16;4875838;28;98485;-71
2023/08/30 06:47:37;;;;;;;;;;;;;;;15.88;48.62;99883.72;4881925;28;97976;-70
2023/08/30 06:50:03;;;;;;;;;;;;;;;15.96;48.58;99882.94;4872214;28;99679;-70
2023/08/30 06:52:30;;;;;;;;;;;;;;;16.03;48.73;99887.91;4886603;28;98472;-70
2023/08/30 06:54:58;;;;;;;;;;;;;;;16.07;48.49;99892.41;4884729;28;98184;-72
2023/08/30 06:57:24;;;;;;;;;;;;;;;16.13;48.53;99895.75;4869396;28;98716;-70
2023/08/30 06:59:51;;;;;;;;;;;;;;;16.18;48.33;99888.25;4875423;28;98187;-70
2023/08/30 07:02:19;;;;;;;;;;;;;;;16.25;48.43;99898.66;4889687;28;98694;-70
2023/08/30 07:04:45;;;;;;;;;;;;;;;16.34;48.35;99904.88;4874040;28;97981;-71
2023/08/30 07:07:13;;;;;;;;;;;;;;;16.39;48.18;99893.88;4889558;28;98935;-71
2023/08/30 07:09:41;;;;;;;;;;;;;;;16.45;48.40;99900.72;4885808;28;98137;-72
2023/08/30 07:12:08;;;;;;;;;;;;;;;16.52;48.26;99905.72;4887773;28;98231;-70
2023/08/30 07:14:34;;;;;;;;;;;;;;;16.58;48.19;99898.16;4873741;28;98091;-71
2023/08/30 07:17:01;;;;;;;;;;;;;;;16.66;48.21;99900.91;4886270;28;97930;-70
2023/08/30 07:19:28;;;;;;;;;;;;;;;16.75;48.24;99900.94;4866581;28;98065;-70
2023/08/30 07:21:54;;;;;;;;;;;;;;;16.84;48.13;99904.44;4864200;28;98178;-71
2023/08/30 07:24:22;;;;;;;;;;;;;;;16.89;48.10;99898.81;4847020;28;98372;-71
2023/08/30 07:26:50;;;;;;;;;;;;;;;16.96;48.01;99905.69;4852523;28;98077;-69
2023/08/30 07:29:16;;;;;;;;;;;;;;;17.03;48.10;99901.34;4836836;28;99991;-71
2023/08/30 07:31:43;;;;;;;;;;;;;;;17.13;47.92;99905.66;4865333;28;97992;-71
2023/08/30 07:34:10;;;;;;;;;;;;;;;17.25;47.95;99905.78;4861209;28;98274;-71
2023/08/30 07:36:36;;;;;;;;;;;;;;;17.38;47.80;99904.78;4867967;28;99451;-70
2023/08/30 07:39:03;;;;;;;;;;;;;;;17.52;47.62;99896.38;4864223;28;99128;-71
2023/08/30 07:41:31;;;;;;;;;;;;;;;17.71;47.58;99901.44;4868214;28;98255;-70
2023/08/30 07:43:57;;;;;;;;;;;;;;;17.87;47.54;99894.31;4871147;28;98366;-70
2023/08/30 07:46:25;;;;;;;;;;;;;;;18.08;47.39;99901.75;4846478;28;98049;-70
2023/08/30 07:48:51;;;;;;;;;;;;;;;18.30;46.94;99898.69;4862813;28;98242;-72
2023/08/30 07:51:18;;;;;;;;;;;;;;;18.47;46.92;99896.94;4864614;28;98482;-71
2023/08/30 07:53:44;;;;;;;;;;;;;;;18.64;46.85;99900.34;4849386;28;98800;-72
2023/08/30 07:56:11;;;;;;;;;;;;;;;18.80;46.88;99903.28;4849923;28;97942;-70
2023/08/30 07:58:37;;;;;;;;;;;;;;;18.92;46.79;99899.00;4868551;28;101677;-70
2023/08/30 08:01:04;;;;;;;;;;;;;;;18.99;46.81;99899.25;4881522;28;98073;-71
2023/08/30 08:03:31;;;;;;;;;;;;;;;19.03;46.85;99900.16;4850556;28;98209;-72
2023/08/30 08:05:59;;;;;;;;;;;;;;;19.08;46.77;99903.47;4863154;28;98128;-72
2023/08/30 08:08:25;;;;;;;;;;;;;;;19.18;47.03;99902.25;4863809;28;98728;-69
2023/08/30 08:10:52;;;;;;;;;;;;;;;19.26;47.00;99895.91;4850471;28;99639;-70
2023/08/30 08:13:19;;;;;;;;;;;;;;;19.38;46.91;99903.31;4842678;28;99566;-72
2023/08/30 08:15:45;;;;;;;;;;;;;;;19.48;46.72;99899.31;4846285;28;98458;-70
2023/08/30 08:18:11;;;;;;;;;;;;;;;19.62;46.66;99897.09;4847027;28;98068;-71
2023/08/30 08:20:39;;;;;;;;;;;;;;;19.81;46.50;99891.06;4858160;28;103787;-70
2023/08/30 08:23:05;;;;;;;;;;;;;;;20.12;46.29;99887.69;4847411;28;97963;-69
2023/08/30 08:25:32;;;;;;;;;;;;;;;20.55;45.90;99887.06;4872621;28;97860;-71
2023/08/30 08:27:58;;;;;;;;;;;;;;;21.06;45.40;99881.78;4855307;28;98300;-70
2023/08/30 08:30:25;;;;;;;;;;;;;;;21.13;45.56;99886.63;4871889;28;98058;-70
2023/08/30 08:32:51;;;;;;;;;;;;;;;21.29;45.57;99892.13;4870834;28;98100;-70
2023/08/30 08:35:18;;;;;;;;;;;;;;;21.44;45.75;99887.84;4864235;28;98980;-70
2023/08/30 08:37:45;;;;;;;;;;;;;;;21.61;45.50;99887.47;4845826;28;98279;-70
2023/08/30 08:40:11;;;;;;;;;;;;;;;21.85;45.31;99882.91;4869436;28;98031;-69
2023/08/30 08:42:38;;;;;;;;;;;;;;;22.49;44.84;99885.16;4861709;28;98046;-69
2023/08/30 08:45:04;;;;;;;;;;;;;;;23.51;43.57;99865.44;4881765;28;98530;-70
2023/08/30 08:47:31;;;;;;;;;;;;;;;24.74;42.52;99876.97;4862345;28;98578;-73
2023/08/30 08:49:59;;;;;;;;;;;;;;;25.35;42.28;99866.53;4869017;28;98138;-71
2023/08/30 08:52:27;;;;;;;;;;;;;;;26.31;41.81;99869.16;4848819;28;98265;-70
2023/08/30 08:54:54;;;;;;;;;;;;;;;27.22;41.31;99874.56;4850252;28;98458;-72
2023/08/30 08:57:21;;;;;;;;;;;;;;;27.79;41.26;99871.81;4850024;28;98321;-72
2023/08/30 08:59:47;;;;;;;;;;;;;;;27.21;42.41;99873.00;4882679;28;98693;-70
2023/08/30 09:02:14;;;;;;;;;;;;;;;26.95;43.07;99871.34;4865274;28;98161;-69
2023/08/30 09:04:40;;;;;;;;;;;;;;;26.65;43.35;99866.94;4864095;28;97798;-69
2023/08/30 09:07:07;;;;;;;;;;;;;;;26.26;43.87;99870.31;4864102;28;98440;-69
2023/08/30 09:09:37;;;;;;;;;;;;;;;25.91;44.36;99871.72;4846100;28;98385;-69
2023/08/30 09:12:03;;;;;;;;;;;;;;;25.82;44.40;99867.69;4866181;28;98876;-69
2023/08/30 09:14:30;;;;;;;;;;;;;;;25.88;44.34;99868.94;4861548;28;98378;-71
2023/08/30 09:16:57;;;;;;;;;;;;;;;25.63;44.44;99864.00;4864809;28;98406;-70
2023/08/30 09:19:24;;;;;;;;;;;;;;;25.49;44.78;99866.66;4859593;28;97931;-72
2023/08/30 09:21:59;;;;;;;;;;;;;;;25.28;44.94;99856.25;4865338;28;98331;-69
2023/08/30 09:24:25;;;;;;;;;;;;;;;25.12;44.96;99862.03;4852705;28;97971;-72
2023/08/30 09:26:55;;;;;;;;;;;;;;;24.96;45.39;99855.94;4861560;28;98051;-72
2023/08/30 09:29:23;;;;;;;;;;;;;;;24.81;45.48;99860.50;4851611;28;98432;-72
2023/08/30 09:31:55;;;;;;;;;;;;;;;24.73;45.20;99853.34;4842107;28;98234;-69
2023/08/30 09:34:27;;;;;;;;;;;;;;;24.79;45.15;99845.50;4850830;28;98217;-71
2023/08/30 09:36:55;;;;;;;;;;;;;;;25.01;45.01;99836.28;4864411;28;98436;-70
2023/08/30 09:39:21;;;;;;;;;;;;;;;25.19;45.11;99847.50;4848877;28;98325;-69
2023/08/30 09:41:48;;;;;;;;;;;;;;;25.29;44.89;99840.50;4855081;28;99705;-69
2023/08/30 09:44:19;;;;;;;;;;;;;;;25.26;44.92;99844.00;4867357;28;98960;-73
2023/08/30 09:46:54;;;;;;;;;;;;;;;25.12;45.21;99837.22;4858211;28;98090;-72
2023/08/30 09:49:21;;;;;;;;;;;;;;;24.94;45.27;99839.75;4846438;28;97984;-72
2023/08/30 09:51:48;;;;;;;;;;;;;;;24.71;45.61;99841.88;4858245;28;98303;-70
2023/08/30 09:54:18;;;;;;;;;;;;;;;24.50;45.88;99842.44;4881836;28;99302;-70
2023/08/30 09:56:46;;;;;;;;;;;;;;;24.38;45.91;99842.69;4866392;28;98485;-70
2023/08/30 09:59:14;;;;;;;;;;;;;;;24.25;45.99;99850.41;4860957;28;98439;-69
2023/08/30 10:01:41;;;;;;;;;;;;;;;24.14;45.82;99850.25;4846456;28;98220;-70
2023/08/30 10:04:11;;;;;;;;;;;;;;;24.02;45.80;99846.94;4851505;28;98865;-72
2023/08/30 10:06:40;;;;;;;;;;;;;;;23.92;45.87;99840.91;4863930;28;98213;-69
2023/08/30 10:09:08;;;;;;;;;;;;;;;23.85;46.07;99840.00;4868614;28;99486;-71
2023/08/30 10:11:38;;;;;;;;;;;;;;;23.84;45.95;99841.19;4865119;28;101251;-70
2023/08/30 10:14:05;;;;;;;;;;;;;;;23.81;45.66;99841.91;4875676;28;98181;-69
2023/08/30 10:16:45;;;;;;;;;;;;;;;23.77;45.90;99844.63;4867176;28;98165;-70
2023/08/30 10:19:23;;;;;;;;;;;;;;;23.73;45.89;99847.31;4856724;28;100024;-71
2023/08/30 10:21:54;;;;;;;;;;;;;;;23.65;46.07;99845.59;4877178;28;98340;-72
2023/08/30 10:24:20;;;;;;;;;;;;;;;23.57;45.90;99838.41;4868490;28;98343;-69
2023/08/30 10:26:47;;;;;;;;;;;;;;;23.50;46.13;99844.59;4889030;28;98596;-69
2023/08/30 10:29:14;;;;;;;;;;;;;;;23.42;46.04;99847.59;4883581;28;98507;-70
2023/08/30 10:31:40;;;;;;;;;;;;;;;23.30;46.14;99845.03;4880353;28;97983;-71
2023/08/30 10:34:17;;;;;;;;;;;;;;;23.17;46.44;99845.22;4845420;28;99389;-71
2023/08/30 10:36:44;;;;;;;;;;;;;;;23.05;46.45;99844.63;4880534;28;98590;-71
2023/08/30 10:39:14;;;;;;;;;;;;;;;22.92;46.56;99842.06;4885481;28;98375;-71
2023/08/30 10:41:57;;;;;;;;;;;;;;;22.81;46.41;99851.22;4864647;28;98460;-70
2023/08/30 10:44:23;;;;;;;;;;;;;;;22.69;46.55;99846.69;4865845;28;98077;-70
2023/08/30 10:46:54;;;;;;;;;;;;;;;22.58;46.69;99842.94;4897148;28;98182;-72
2023/08/30 10:49:20;;;;;;;;;;;;;;;22.44;46.78;99840.69;4878689;28;98315;-71
2023/08/30 10:51:55;;;;;;;;;;;;;;;22.35;46.68;99851.13;4844917;28;99719;-69
2023/08/30 10:54:23;;;;;;;;;;;;;;;22.27;46.92;99836.44;4873148;28;98995;-72
2023/08/30 10:57:01;;;;;;;;;;;;;;;22.25;46.78;99839.56;4880287;28;98180;-72
2023/08/30 10:59:27;;;;;;;;;;;;;;;22.24;46.61;99840.72;4869777;28;98113;-70
2023/08/30 11:01:53;;;;;;;;;;;;;;;22.29;46.64;99845.91;4879443;28;98268;-70
2023/08/30 11:04:21;;;;;;;;;;;;;;;22.35;46.40;99853.84;4881972;28;98163;-72
2023/08/30 11:06:51;;;;;;;;;;;;;;;22.36;46.26;99839.78;4861089;28;98429;-71
2023/08/30 11:09:21;;;;;;;;;;;;;;;22.32;46.49;99838.91;4886809;28;99684;-70
2023/08/30 11:11:48;;;;;;;;;;;;;;;22.25;46.40;99850.53;4869303;28;98142;-71
2023/08/30 11:14:15;;;;;;;;;;;;;;;22.16;46.44;99852.69;4885067;28;100054;-70
2023/08/30 11:16:41;;;;;;;;;;;;;;;22.06;46.79;99854.03;4882286;28;99233;-70
2023/08/30 11:19:08;;;;;;;;;;;;;;;21.96;46.76;99849.09;4883050;28;98286;-72
2023/08/30 11:21:39;;;;;;;;;;;;;;;21.90;46.81;99850.53;4844984;28;98857;-70
2023/08/30 11:24:06;;;;;;;;;;;;;;;21.98;46.58;99851.50;4863448;28;98117;-72
2023/08/30 11:26:33;;;;;;;;;;;;;;;22.13;46.47;99847.13;4851174;28;98340;-70
2023/08/30 11:29:09;;;;;;;;;;;;;;;22.21;46.23;99843.41;4862563;28;98014;-72
2023/08/30 11:31:36;;;;;;;;;;;;;;;22.21;46.35;99849.69;4863165;28;98753;-70
2023/08/30 11:34:03;;;;;;;;;;;;;;;22.19;46.45;99848.44;4860670;28;98222;-72
2023/08/30 11:36:32;;;;;;;;;;;;;;;22.08;46.40;99844.63;4860239;28;98037;-72
2023/08/30 11:38:58;;;;;;;;;;;;;;;21.89;46.77;99846.22;4881945;28;98130;-72
2023/08/30 11:41:26;;;;;;;;;;;;;;;21.70;46.89;99849.69;4856193;28;99773;-72
2023/08/30 11:43:53;;;;;;;;;;;;;;;21.54;46.98;99848.94;4863772;28;99528;-70
2023/08/30 11:46:20;;;;;;;;;;;;;;;21.38;47.21;99848.94;4850145;28;98307;-72
2023/08/30 11:48:47;;;;;;;;;;;;;;;21.22;47.10;99848.09;4860092;28;99523;-72
2023/08/30 11:51:13;;;;;;;;;;;;;;;21.04;47.38;99839.44;4865622;28;97909;-71
2023/08/30 11:53:40;;;;;;;;;;;;;;;20.90;47.44;99842.59;4845429;28;100230;-69
2023/08/30 11:56:09;;;;;;;;;;;;;;;20.77;47.58;99843.81;4867939;28;98307;-71
2023/08/30 11:58:36;;;;;;;;;;;;;;;20.77;47.53;99841.09;4851274;28;98144;-72
2023/08/30 12:01:06;;;;;;;;;;;;;;;20.86;47.37;99840.91;4849454;28;98426;-71
2023/08/30 12:03:33;;;;;;;;;;;;;;;21.01;47.29;99837.41;4864858;28;99930;-69
2023/08/30 12:05:59;;;;;;;;;;;;;;;21.27;46.93;99832.22;4852356;28;97845;-70
2023/08/30 12:08:29;;;;;;;;;;;;;;;21.48;46.69;99831.94;4865666;28;101650;-69
2023/08/30 12:10:57;;;;;;;;;;;;;;;21.66;46.47;99829.63;4853499;28;98079;-72
2023/08/30 12:13:31;;;;;;;;;;;;;;;21.79;46.36;99827.56;4851501;28;98140;-72
2023/08/30 12:15:58;;;;;;;;;;;;;;;21.80;46.46;99824.44;4867236;28;98169;-69
2023/08/30 12:18:28;;;;;;;;;;;;;;;21.71;46.53;99832.09;4867910;28;98575;-71
2023/08/30 12:21:02;;;;;;;;;;;;;;;21.49;46.74;99824.50;4865596;28;99954;-70
2023/08/30 12:23:32;;;;;;;;;;;;;;;21.30;46.99;99828.75;4882716;28;98358;-74
2023/08/30 12:26:09;;;;;;;;;;;;;;;21.11;47.25;99825.94;4870888;28;99501;-73
2023/08/30 12:28:44;;;;;;;;;;;;;;;20.95;47.32;99823.19;4877308;28;98631;-72
2023/08/30 12:31:10;;;;;;;;;;;;;;;20.82;47.40;99824.38;4888473;28;99755;-70
2023/08/30 12:33:37;;;;;;;;;;;;;;;20.67;47.55;99820.50;4887112;28;98061;-72
2023/08/30 12:36:03;;;;;;;;;;;;;;;20.62;47.49;99817.19;4884229;28;99111;-72
2023/08/30 12:38:30;;;;;;;;;;;;;;;20.57;47.54;99810.03;4863289;28;98268;-72
2023/08/30 12:40:56;;;;;;;;;;;;;;;20.58;47.55;99812.41;4858787;28;101143;-70
2023/08/30 12:43:23;;;;;;;;;;;;;;;20.64;47.32;99810.25;4871178;28;99423;-72
2023/08/30 12:45:50;;;;;;;;;;;;;;;20.76;47.05;99809.38;4867424;28;98379;-72
2023/08/30 12:48:17;;;;;;;;;;;;;;;21.11;46.65;99814.19;4863222;28;100693;-72